createdAt,value
2018-09-28T00:01:40.806Z,10.70
2018-09-28T00:04:09.318Z,10.70
2018-09-28T00:06:37.790Z,10.70
2018-09-28T00:09:09.238Z,10.70
2018-09-28T00:11:37.718Z,10.70
2018-09-28T00:14:06.230Z,10.70
2018-09-28T00:16:34.787Z,10.60
2018-09-28T00:19:03.273Z,10.50
2018-09-28T00:21:31.802Z,10.50
2018-09-28T00:24:00.831Z,10.50
2018-09-28T00:26:29.316Z,10.40
2018-09-28T00:28:58.055Z,10.40
2018-09-28T00:31:27.065Z,10.40
2018-09-28T00:33:55.559Z,10.40
2018-09-28T00:36:25.034Z,10.30
2018-09-28T00:38:53.539Z,10.30
2018-09-28T00:41:22.310Z,10.30
2018-09-28T00:43:50.801Z,10.20
2018-09-28T00:46:19.413Z,10.20
2018-09-28T00:48:47.950Z,10.20
2018-09-28T00:51:16.506Z,10.10
2018-09-28T00:53:45.027Z,10.10
2018-09-28T00:56:13.739Z,10.10
2018-09-28T00:58:42.202Z,10.10
2018-09-28T01:01:10.711Z,10.10
2018-09-28T01:03:39.339Z,10.10
2018-09-28T01:06:07.853Z,10.10
2018-09-28T01:08:36.325Z,10.10
2018-09-28T01:11:04.912Z,10.10
2018-09-28T01:13:33.714Z,10.10
2018-09-28T01:16:02.414Z,10.10
2018-09-28T01:18:31.009Z,10.10
2018-09-28T01:20:59.489Z,10.10
2018-09-28T01:23:28.016Z,10.10
2018-09-28T01:25:56.463Z,10.10
2018-09-28T01:28:24.941Z,10.10
2018-09-28T01:30:53.544Z,10.00
2018-09-28T01:33:22.113Z,10.10
2018-09-28T01:35:50.559Z,10.10
2018-09-28T01:38:19.078Z,10.10
2018-09-28T01:40:47.601Z,10.00
2018-09-28T01:43:16.183Z,10.10
2018-09-28T01:45:44.765Z,10.10
2018-09-28T01:48:13.456Z,10.00
2018-09-28T01:50:41.938Z,10.00
2018-09-28T01:53:10.707Z,10.00
2018-09-28T01:55:39.334Z,10.00
2018-09-28T01:58:07.802Z,9.90
2018-09-28T02:00:36.346Z,9.90
2018-09-28T02:03:05.245Z,9.80
2018-09-28T02:05:33.849Z,9.80
2018-09-28T02:08:02.354Z,9.80
2018-09-28T02:10:30.807Z,9.80
2018-09-28T02:12:59.358Z,9.80
2018-09-28T02:15:27.818Z,9.80
2018-09-28T02:17:56.348Z,9.80
2018-09-28T02:20:24.824Z,9.70
2018-09-28T02:22:54.474Z,9.70
2018-09-28T02:25:22.982Z,9.70
2018-09-28T02:27:51.459Z,9.60
2018-09-28T02:30:19.936Z,9.60
2018-09-28T02:32:48.479Z,9.60
2018-09-28T02:35:16.933Z,9.60
2018-09-28T02:37:45.411Z,9.50
2018-09-28T02:40:13.867Z,9.50
2018-09-28T02:42:43.254Z,9.60
2018-09-28T02:45:11.900Z,9.60
2018-09-28T02:47:40.897Z,9.50
2018-09-28T02:50:09.473Z,9.50
2018-09-28T02:52:38.065Z,9.50
2018-09-28T02:55:06.588Z,9.50
2018-09-28T02:57:35.082Z,9.50
2018-09-28T03:00:03.934Z,9.50
2018-09-28T03:02:32.902Z,9.50
2018-09-28T03:05:01.417Z,9.40
2018-09-28T03:07:29.945Z,9.40
2018-09-28T03:09:58.549Z,9.40
2018-09-28T03:12:27.317Z,9.30
2018-09-28T03:14:55.901Z,9.30
2018-09-28T03:17:25.786Z,9.30
2018-09-28T03:19:54.277Z,9.30
2018-09-28T03:22:22.730Z,9.30
2018-09-28T03:24:51.224Z,9.30
2018-09-28T03:27:19.791Z,9.30
2018-09-28T03:29:48.447Z,9.20
2018-09-28T03:32:16.936Z,9.30
2018-09-28T03:34:45.507Z,9.20
2018-09-28T03:37:13.979Z,9.20
2018-09-28T03:39:42.477Z,9.20
2018-09-28T03:42:11.046Z,9.20
2018-09-28T03:44:39.597Z,9.20
2018-09-28T03:47:08.128Z,9.20
2018-09-28T03:49:36.644Z,9.20
2018-09-28T03:52:05.147Z,9.20
2018-09-28T03:54:33.709Z,9.10
2018-09-28T03:57:02.194Z,9.10
2018-09-28T03:59:30.732Z,9.10
2018-09-28T04:01:59.250Z,9.10
2018-09-28T04:04:28.027Z,9.00
2018-09-28T04:06:56.825Z,9.00
2018-09-28T04:09:25.450Z,9.00
2018-09-28T04:11:53.958Z,9.00
2018-09-28T04:14:22.409Z,9.00
2018-09-28T04:16:50.952Z,9.00
2018-09-28T04:19:19.402Z,9.00
2018-09-28T04:21:58.412Z,8.90
2018-09-28T04:24:27.318Z,8.90
2018-09-28T04:26:56.417Z,8.90
2018-09-28T04:29:25.456Z,8.90
2018-09-28T04:31:54.047Z,8.90
2018-09-28T04:34:22.510Z,8.90
2018-09-28T04:36:51.521Z,8.90
2018-09-28T04:39:19.990Z,8.90
2018-09-28T04:41:48.629Z,8.90
2018-09-28T04:44:17.349Z,8.90
2018-09-28T04:46:46.067Z,8.90
2018-09-28T04:49:14.754Z,8.90
2018-09-28T04:51:43.288Z,8.90
2018-09-28T04:54:11.765Z,8.90
2018-09-28T04:56:40.248Z,8.90
2018-09-28T04:59:08.778Z,8.90
2018-09-28T05:01:37.266Z,8.90
2018-09-28T05:04:05.854Z,8.90
2018-09-28T05:06:34.714Z,8.80
2018-09-28T05:09:03.308Z,8.80
2018-09-28T05:11:31.998Z,8.80
2018-09-28T05:14:00.542Z,8.80
2018-09-28T05:16:29.062Z,8.80
2018-09-28T05:18:57.547Z,8.80
2018-09-28T05:21:26.126Z,8.80
2018-09-28T05:23:54.787Z,8.80
2018-09-28T05:26:23.348Z,8.90
2018-09-28T05:28:51.788Z,8.80
2018-09-28T05:31:21.128Z,8.90
2018-09-28T05:33:49.586Z,8.90
2018-09-28T05:36:18.059Z,8.90
2018-09-28T05:38:46.604Z,8.90
2018-09-28T05:41:15.102Z,9.00
2018-09-28T05:43:43.576Z,9.00
2018-09-28T05:46:12.176Z,9.00
2018-09-28T05:48:40.917Z,9.10
2018-09-28T05:51:09.524Z,9.10
2018-09-28T05:53:38.791Z,9.20
2018-09-28T05:56:07.747Z,9.20
2018-09-28T05:58:41.737Z,9.30
2018-09-28T06:01:16.624Z,9.30
2018-09-28T06:03:50.584Z,9.30
2018-09-28T06:06:19.066Z,9.30
2018-09-28T06:08:47.817Z,9.40
2018-09-28T06:11:16.346Z,9.40
2018-09-28T06:13:45.009Z,9.50
2018-09-28T06:16:13.967Z,9.50
2018-09-28T06:18:42.669Z,9.50
2018-09-28T06:21:11.204Z,9.60
2018-09-28T06:23:39.687Z,9.60
2018-09-28T06:26:08.218Z,9.70
2018-09-28T06:28:36.776Z,9.70
2018-09-28T06:31:05.244Z,9.80
2018-09-28T06:33:33.725Z,9.90
2018-09-28T06:36:02.444Z,10.00
2018-09-28T06:38:30.876Z,10.50
2018-09-28T06:40:59.618Z,13.30
2018-09-28T06:43:28.158Z,17.30
2018-09-28T06:45:56.674Z,21.00
2018-09-28T06:48:25.181Z,23.50
2018-09-28T06:50:55.999Z,25.80
2018-09-28T06:53:24.474Z,27.00
2018-09-28T06:55:52.917Z,28.10
2018-09-28T06:58:21.757Z,29.20
2018-09-28T07:00:50.265Z,30.10
2018-09-28T07:03:18.745Z,30.60
2018-09-28T07:05:47.259Z,30.70
2018-09-28T07:08:15.754Z,30.60
2018-09-28T07:10:45.423Z,31.50
2018-09-28T07:13:13.865Z,32.10
2018-09-28T07:15:42.353Z,31.90
2018-09-28T07:18:10.844Z,32.20
2018-09-28T07:20:39.334Z,32.50
2018-09-28T07:23:07.846Z,32.60
2018-09-28T07:25:36.446Z,32.00
2018-09-28T07:28:05.169Z,32.40
2018-09-28T07:30:33.669Z,32.60
2018-09-28T07:33:02.197Z,33.10
2018-09-28T07:35:30.655Z,33.70
2018-09-28T07:37:59.225Z,33.40
2018-09-28T07:40:27.916Z,33.30
2018-09-28T07:42:56.471Z,33.20
2018-09-28T07:45:24.954Z,32.70
2018-09-28T07:47:54.422Z,32.70
2018-09-28T07:50:23.193Z,32.70
2018-09-28T07:53:04.416Z,32.50
2018-09-28T07:55:35.093Z,31.40
2018-09-28T07:58:03.707Z,31.20
2018-09-28T08:00:32.521Z,30.60
2018-09-28T08:05:39.002Z,31.30
2018-09-28T08:08:09.850Z,31.50
2018-09-28T08:10:38.419Z,31.10
2018-09-28T08:13:07.106Z,30.90
2018-09-28T08:15:36.821Z,30.20
2018-09-28T08:18:06.358Z,30.10
2018-09-28T08:20:34.850Z,29.70
2018-09-28T08:23:03.374Z,29.60
2018-09-28T08:25:32.571Z,29.50
2018-09-28T08:28:01.463Z,28.80
2018-09-28T08:30:30.304Z,28.80
2018-09-28T08:32:58.920Z,28.40
2018-09-28T08:35:28.595Z,27.70
2018-09-28T08:37:57.075Z,27.80
2018-09-28T08:40:26.233Z,28.10
2018-09-28T08:42:55.544Z,27.70
2018-09-28T08:45:24.099Z,27.90
2018-09-28T08:47:52.684Z,27.40
2018-09-28T08:50:21.496Z,27.20
2018-09-28T08:52:51.096Z,27.10
2018-09-28T08:55:20.300Z,27.20
2018-09-28T08:57:49.686Z,27.10
2018-09-28T09:00:18.241Z,26.50
2018-09-28T09:02:46.876Z,26.30
2018-09-28T09:05:16.460Z,26.00
2018-09-28T09:07:45.667Z,25.00
2018-09-28T09:10:14.264Z,24.40
2018-09-28T09:12:44.261Z,24.20
2018-09-28T09:15:12.875Z,24.00
2018-09-28T09:17:41.612Z,23.80
2018-09-28T09:20:11.839Z,23.90
2018-09-28T09:22:41.680Z,23.60
2018-09-28T09:25:10.873Z,23.70
2018-09-28T09:27:39.409Z,24.00
2018-09-28T09:30:08.064Z,24.10
2018-09-28T09:32:37.133Z,24.30
2018-09-28T09:35:06.611Z,24.20
2018-09-28T09:37:39.081Z,24.00
2018-09-28T09:40:07.675Z,24.00
2018-09-28T09:42:36.288Z,24.10
2018-09-28T09:45:04.982Z,24.20
2018-09-28T09:47:33.624Z,24.50
2018-09-28T09:50:02.340Z,24.60
2018-09-28T09:52:32.764Z,24.50
2018-09-28T09:55:02.339Z,24.70
2018-09-28T09:57:34.718Z,24.90
2018-09-28T10:00:09.551Z,24.80
2018-09-28T10:02:44.720Z,25.00
2018-09-28T10:05:14.393Z,24.70
2018-09-28T10:07:43.163Z,24.70
2018-09-28T10:10:14.862Z,24.90
2018-09-28T10:12:43.755Z,25.00
2018-09-28T10:15:12.518Z,25.00
2018-09-28T10:17:41.752Z,24.90
2018-09-28T10:20:10.755Z,25.00
2018-09-28T10:22:40.147Z,24.80
2018-09-28T10:25:08.899Z,24.90
2018-09-28T10:27:37.800Z,24.80
2018-09-28T10:30:06.707Z,24.90
2018-09-28T10:32:37.298Z,24.70
2018-09-28T10:35:05.968Z,24.80
2018-09-28T10:37:34.810Z,24.70
2018-09-28T10:40:04.413Z,24.70
2018-09-28T10:42:34.226Z,24.90
2018-09-28T10:45:03.009Z,24.90
2018-09-28T10:47:32.887Z,24.80
2018-09-28T10:50:06.335Z,24.80
2018-09-28T10:52:35.340Z,24.80
2018-09-28T10:55:04.132Z,24.40
2018-09-28T10:57:32.815Z,24.40
2018-09-28T11:00:01.531Z,24.20
2018-09-28T11:02:30.320Z,24.20
2018-09-28T11:04:59.288Z,24.30
2018-09-28T11:07:28.195Z,24.30
2018-09-28T11:09:57.579Z,24.40
2018-09-28T11:12:26.376Z,24.40
2018-09-28T11:14:54.850Z,24.40
2018-09-28T11:17:23.640Z,24.40
2018-09-28T11:19:52.499Z,24.40
2018-09-28T11:22:21.180Z,24.10
2018-09-28T11:24:50.111Z,24.00
2018-09-28T11:27:19.034Z,23.80
2018-09-28T11:29:47.483Z,23.90
2018-09-28T11:32:16.182Z,23.80
2018-09-28T11:34:44.731Z,23.90
2018-09-28T11:37:13.287Z,23.90
2018-09-28T11:39:41.829Z,23.80
2018-09-28T11:42:10.444Z,23.80
2018-09-28T11:44:39.219Z,23.90
2018-09-28T11:47:10.400Z,23.90
2018-09-28T11:49:41.141Z,23.80
2018-09-28T11:52:09.830Z,23.70
2018-09-28T11:54:38.614Z,23.60
2018-09-28T11:57:07.941Z,23.80
2018-09-28T11:59:36.490Z,23.80
2018-09-28T12:02:06.220Z,23.90
2018-09-28T12:04:34.791Z,23.90
2018-09-28T12:07:03.835Z,23.90
2018-09-28T12:09:32.856Z,23.70
2018-09-28T12:12:01.822Z,23.70
2018-09-28T12:14:33.520Z,23.70
2018-09-28T12:20:10.189Z,23.60
2018-09-28T12:22:48.020Z,23.50
2018-09-28T12:25:27.347Z,23.50
2018-09-28T12:28:05.184Z,23.60
2018-09-28T12:30:44.759Z,23.60
2018-09-28T12:33:15.735Z,23.60
2018-09-28T12:35:46.280Z,23.40
2018-09-28T12:38:18.557Z,23.40
2018-09-28T12:40:48.760Z,23.50
2018-09-28T12:43:17.566Z,23.20
2018-09-28T12:45:48.695Z,23.20
2018-09-28T12:48:17.861Z,23.00
2018-09-28T12:50:46.543Z,23.00
2018-09-28T12:53:17.915Z,23.20
2018-09-28T12:55:53.345Z,23.20
2018-09-28T12:58:22.136Z,23.20
2018-09-28T13:00:50.892Z,23.20
2018-09-28T13:03:19.654Z,23.20
2018-09-28T13:05:48.227Z,23.10
2018-09-28T13:08:16.921Z,23.00
2018-09-28T13:10:46.790Z,22.90
2018-09-28T13:13:15.831Z,23.00
2018-09-28T13:15:45.039Z,23.00
2018-09-28T13:18:13.661Z,22.90
2018-09-28T13:20:42.273Z,22.60
2018-09-28T13:23:14.048Z,22.60
2018-09-28T13:25:42.802Z,22.50
2018-09-28T13:28:11.831Z,22.30
2018-09-28T13:30:40.550Z,22.20
2018-09-28T13:33:09.023Z,22.30
2018-09-28T13:35:37.570Z,22.30
2018-09-28T13:38:06.283Z,22.30
2018-09-28T13:40:34.902Z,22.40
2018-09-28T13:43:04.625Z,22.20
2018-09-28T13:45:33.391Z,22.10
2018-09-28T13:48:03.630Z,22.20
2018-09-28T13:50:34.392Z,22.10
2018-09-28T13:53:02.954Z,22.20
2018-09-28T13:55:31.667Z,22.20
2018-09-28T13:58:05.699Z,22.10
2018-09-28T14:00:34.728Z,22.00
2018-09-28T14:03:05.374Z,21.90
2018-09-28T14:05:34.547Z,21.90
2018-09-28T14:08:03.258Z,21.90
2018-09-28T14:10:32.829Z,21.90
2018-09-28T14:13:01.538Z,21.90
2018-09-28T14:15:30.459Z,22.00
2018-09-28T14:18:00.064Z,22.10
2018-09-28T14:20:28.789Z,22.20
2018-09-28T14:22:57.332Z,22.20
2018-09-28T14:25:25.841Z,22.20
2018-09-28T14:27:54.441Z,22.20
2018-09-28T14:30:23.192Z,22.10
2018-09-28T14:32:52.895Z,22.20
2018-09-28T14:35:24.948Z,22.30
2018-09-28T14:37:53.747Z,22.30
2018-09-28T14:40:22.457Z,22.30
2018-09-28T14:42:53.675Z,22.30
2018-09-28T14:45:23.375Z,22.30
2018-09-28T14:47:51.980Z,22.40
2018-09-28T14:50:20.985Z,22.40
2018-09-28T14:52:50.089Z,22.30
2018-09-28T14:55:18.626Z,22.30
2018-09-28T14:57:47.674Z,22.30
2018-09-28T15:00:16.589Z,22.20
2018-09-28T15:02:45.276Z,22.10
2018-09-28T15:05:15.356Z,22.10
2018-09-28T15:07:45.282Z,22.20
2018-09-28T15:10:13.956Z,22.20
2018-09-28T15:12:42.735Z,22.10
2018-09-28T15:15:11.534Z,22.10
2018-09-28T15:17:41.058Z,21.90
2018-09-28T15:20:10.687Z,21.90
2018-09-28T15:22:39.184Z,21.90
2018-09-28T15:25:07.874Z,21.90
2018-09-28T15:27:36.549Z,21.90
2018-09-28T15:30:05.801Z,21.90
2018-09-28T15:32:34.306Z,21.80
2018-09-28T15:35:02.866Z,21.80
2018-09-28T15:37:31.347Z,21.80
2018-09-28T15:39:59.846Z,21.70
2018-09-28T15:42:28.468Z,21.60
2018-09-28T15:44:56.931Z,21.50
2018-09-28T15:47:25.452Z,21.40
2018-09-28T15:49:57.496Z,21.30
2018-09-28T15:52:26.162Z,21.10
2018-09-28T15:54:54.867Z,21.00
2018-09-28T15:57:24.115Z,20.90
2018-09-28T15:59:53.768Z,20.50
2018-09-28T16:02:22.374Z,20.30
2018-09-28T16:04:51.090Z,20.10
2018-09-28T16:07:20.228Z,20.00
2018-09-28T16:09:49.206Z,19.90
2018-09-28T16:12:18.232Z,19.70
2018-09-28T16:14:50.479Z,19.60
2018-09-28T16:17:19.456Z,19.40
2018-09-28T16:19:48.304Z,19.30
2018-09-28T16:22:17.987Z,19.30
2018-09-28T16:24:48.726Z,19.20
2018-09-28T16:27:17.243Z,19.00
2018-09-28T16:29:45.928Z,18.90
2018-09-28T16:32:16.476Z,18.80
2018-09-28T16:34:48.870Z,18.70
2018-09-28T16:37:18.919Z,18.70
2018-09-28T16:39:49.900Z,18.70
2018-09-28T16:42:19.455Z,18.50
2018-09-28T16:44:49.976Z,18.40
2018-09-28T16:47:18.577Z,18.40
2018-09-28T16:49:47.080Z,18.40
2018-09-28T16:52:16.911Z,18.10
2018-09-28T16:54:45.648Z,18.00
2018-09-28T16:57:14.741Z,18.00
2018-09-28T16:59:43.426Z,18.00
2018-09-28T17:02:12.078Z,18.00
2018-09-28T17:04:41.925Z,18.00
2018-09-28T17:07:10.454Z,17.90
2018-09-28T17:09:39.179Z,17.80
2018-09-28T17:12:08.613Z,17.70
2018-09-28T17:14:39.615Z,17.70
2018-09-28T17:17:09.150Z,17.60
2018-09-28T17:19:40.930Z,17.60
2018-09-28T17:22:09.791Z,17.60
2018-09-28T17:24:39.599Z,17.50
2018-09-28T17:27:09.826Z,17.50
2018-09-28T17:29:38.487Z,17.40
2018-09-28T17:32:07.270Z,17.30
2018-09-28T17:34:36.570Z,17.20
2018-09-28T17:37:06.554Z,17.10
2018-09-28T17:39:36.661Z,17.10
2018-09-28T17:42:16.055Z,16.90
2018-09-28T17:44:58.541Z,16.80
2018-09-28T17:47:35.383Z,16.70
2018-09-28T17:50:19.483Z,16.50
2018-09-28T17:53:06.624Z,16.40
2018-09-28T17:56:44.160Z,16.30
2018-09-28T17:59:20.297Z,16.10
2018-09-28T18:01:58.066Z,16.00
2018-09-28T18:04:36.882Z,15.80
2018-09-28T18:07:12.825Z,15.80
2018-09-28T18:09:51.687Z,15.70
2018-09-28T18:12:27.135Z,15.60
2018-09-28T18:14:57.354Z,15.50
2018-09-28T18:17:31.756Z,15.40
2018-09-28T18:20:32.204Z,15.40
2018-09-28T18:23:03.514Z,15.30
2018-09-28T18:25:33.341Z,15.20
2018-09-28T18:28:04.705Z,15.10
2018-09-28T18:30:47.032Z,15.20
2018-09-28T18:33:22.139Z,15.10
2018-09-28T18:35:53.252Z,15.10
2018-09-28T18:38:22.612Z,15.00
2018-09-28T18:40:51.760Z,15.00
2018-09-28T18:43:20.371Z,14.90
2018-09-28T18:45:49.573Z,14.90
2018-09-28T18:48:18.504Z,14.80
2018-09-28T18:50:49.926Z,14.80
2018-09-28T18:53:21.976Z,14.70
2018-09-28T18:55:54.861Z,14.70
2018-09-28T18:58:31.578Z,14.60
2018-09-28T19:01:02.983Z,14.60
2018-09-28T19:03:35.974Z,14.60
2018-09-28T19:06:08.872Z,14.50
2018-09-28T19:08:42.408Z,14.50
2018-09-28T19:11:12.422Z,14.40
2018-09-28T19:13:43.597Z,14.50
2018-09-28T19:16:14.148Z,14.40
2018-09-28T19:18:45.788Z,14.40
2018-09-28T19:21:16.882Z,14.50
2018-09-28T19:26:41.097Z,14.50
2018-09-28T19:29:11.520Z,14.50
2018-09-28T19:31:44.703Z,14.50
2018-09-28T19:34:16.360Z,14.50
2018-09-28T19:36:48.180Z,14.50
2018-09-28T19:39:19.051Z,14.50
2018-09-28T19:41:49.270Z,14.60
2018-09-28T19:44:18.769Z,14.50
2018-09-28T19:46:53.176Z,14.50
2018-09-28T19:49:28.295Z,14.60
2018-09-28T19:51:59.642Z,14.60
2018-09-28T19:54:33.243Z,14.50
2018-09-28T19:57:10.200Z,14.60
2018-09-28T19:59:45.974Z,14.70
2018-09-28T20:02:15.751Z,14.60
2018-09-28T20:04:50.465Z,14.60
2018-09-28T20:07:21.490Z,14.70
2018-09-28T20:09:55.692Z,14.60
2018-09-28T20:12:27.969Z,14.50
2018-09-28T20:14:59.539Z,14.40
2018-09-28T20:17:31.877Z,14.50
2018-09-28T20:20:05.602Z,14.40
2018-09-28T20:22:38.739Z,14.50
2018-09-28T20:25:11.381Z,14.50
2018-09-28T20:27:44.868Z,14.60
2018-09-28T20:30:18.687Z,14.50
2018-09-28T20:32:50.248Z,14.50
2018-09-28T20:35:21.027Z,14.40
2018-09-28T20:37:50.657Z,14.40
2018-09-28T20:40:20.360Z,14.50
2018-09-28T20:42:51.216Z,14.40
2018-09-28T20:45:21.300Z,14.50
2018-09-28T20:47:51.995Z,14.40
2018-09-28T20:50:26.387Z,14.40
2018-09-28T20:52:55.796Z,14.40
2018-09-28T20:55:25.783Z,14.40
2018-09-28T20:58:01.835Z,14.40
2018-09-28T21:00:35.732Z,14.40
2018-09-28T21:03:05.653Z,14.40
2018-09-28T21:05:38.312Z,14.40
2018-09-28T21:08:14.287Z,14.40
2018-09-28T21:10:45.411Z,14.40
2018-09-28T21:13:15.932Z,14.40
2018-09-28T21:15:46.171Z,14.40
2018-09-28T21:18:14.865Z,14.30
2018-09-28T21:20:44.086Z,14.30
2018-09-28T21:23:12.978Z,14.30
2018-09-28T21:25:42.787Z,14.30
2018-09-28T21:28:51.250Z,14.30
2018-09-28T21:31:20.220Z,14.30
2018-09-28T21:33:49.493Z,14.30
2018-09-28T21:36:18.281Z,14.20
2018-09-28T21:38:47.278Z,14.20
2018-09-28T21:41:16.256Z,14.00
2018-09-28T21:43:45.601Z,14.00
2018-09-28T21:46:14.257Z,13.90
2018-09-28T21:48:43.401Z,13.80
2018-09-28T21:51:12.338Z,13.80
2018-09-28T21:53:41.173Z,13.70
2018-09-28T21:56:10.080Z,13.60
2018-09-28T21:58:38.767Z,13.60
2018-09-28T22:01:08.106Z,13.60
2018-09-28T22:03:36.888Z,13.60
2018-09-28T22:06:05.744Z,13.60
2018-09-28T22:08:34.395Z,13.50
2018-09-28T22:11:03.158Z,13.50
2018-09-28T22:13:32.119Z,13.50
2018-09-28T22:16:01.038Z,13.40
2018-09-28T22:18:30.365Z,13.40
2018-09-28T22:20:59.333Z,13.30
2018-09-28T22:23:28.345Z,13.20
2018-09-28T22:25:57.266Z,13.20
2018-09-28T22:28:26.231Z,13.20
2018-09-28T22:30:55.024Z,13.20
2018-09-28T22:33:23.986Z,13.20
2018-09-28T22:35:52.968Z,13.20
2018-09-28T22:38:22.015Z,13.10
2018-09-28T22:40:50.702Z,13.10
2018-09-28T22:43:19.185Z,13.10
2018-09-28T22:45:48.474Z,13.10
2018-09-28T22:48:17.270Z,13.00
2018-09-28T22:50:46.440Z,13.00
2018-09-28T22:53:15.522Z,12.90
2018-09-28T22:55:44.922Z,12.90
2018-09-28T22:58:13.920Z,12.80
2018-09-28T23:00:42.965Z,12.70
2018-09-28T23:03:11.919Z,12.70
2018-09-28T23:05:40.707Z,12.70
2018-09-28T23:08:09.497Z,12.70
2018-09-28T23:10:48.804Z,12.60
2018-09-28T23:13:18.203Z,12.60
2018-09-28T23:15:46.943Z,12.60
2018-09-28T23:18:16.222Z,12.60
2018-09-28T23:20:45.131Z,12.60
2018-09-28T23:23:14.329Z,12.50
2018-09-28T23:25:42.914Z,12.50
2018-09-28T23:28:11.680Z,12.50
2018-09-28T23:30:40.554Z,12.40
2018-09-28T23:33:09.190Z,12.40
2018-09-28T23:35:38.278Z,12.30
2018-09-28T23:38:07.369Z,12.30
2018-09-28T23:40:36.296Z,12.20
2018-09-28T23:43:05.444Z,12.10
2018-09-28T23:45:34.471Z,12.10
2018-09-28T23:48:03.111Z,12.00
2018-09-28T23:50:31.865Z,11.90
2018-09-28T23:53:01.071Z,11.90
2018-09-28T23:55:29.967Z,11.80
2018-09-28T23:57:58.831Z,11.80
